Time;durP1;ratioP1;P1;durP2;ratioP2;P2;SDS_P1;SDS_P2;PMS_P1;PMS_P2;Temp;Humidity;BMP_temperature;BMP_pressure;BME280_temperature;BME280_humidity;BME280_pressure;Samples;Min_cycle;Max_cycle;Signal;HPM_P1;HPM_P2
2022/06/13 05:09:43;;;;;;;;;;;;;;;22.32;82.96;98405.72;5319175;23;19972;-69
2022/06/13 05:12:17;;;;;;;;;;;;;;;22.28;84.08;98393.66;4885319;29;19979;-70
2022/06/13 05:14:54;;;;;;;;;;;;;;;22.19;82.49;98385.13;4880667;29;19954;-75
2022/06/13 05:17:40;;;;;;;;;;;;;;;22.15;87.71;98368.16;4883414;29;19967;-77
2022/06/13 05:20:16;;;;;;;;;;;;;;;22.05;92.63;98358.06;4884575;29;19977;-77
2022/06/13 05:22:50;;;;;;;;;;;;;;;21.85;88.97;98345.53;4885569;29;19958;-76
2022/06/13 05:25:27;;;;;;;;;;;;;;;21.84;83.22;98358.16;4885822;29;19951;-76
2022/06/13 05:27:54;;;;;;;;;;;;;;;21.79;87.39;98364.50;4873199;29;20258;-76
2022/06/13 05:30:22;;;;;;;;;;;;;;;21.81;85.91;98371.25;4884021;29;20220;-77
2022/06/13 05:32:49;;;;;;;;;;;;;;;21.90;84.81;98364.84;4883384;29;19954;-76
2022/06/13 05:35:21;;;;;;;;;;;;;;;21.95;84.02;98347.94;4877338;29;19984;-79
2022/06/13 05:37:51;;;;;;;;;;;;;;;22.02;86.38;98335.44;4881362;29;19957;-76
2022/06/13 05:40:20;;;;;;;;;;;;;;;21.97;86.08;98331.16;4878167;29;19951;-75
2022/06/13 05:42:48;;;;;;;;;;;;;;;22.02;83.59;98324.03;4878125;29;19958;-73
2022/06/13 05:45:18;;;;;;;;;;;;;;;22.00;84.98;98326.56;4879501;29;19958;-75
2022/06/13 05:47:47;;;;;;;;;;;;;;;22.08;74.83;98331.47;4881392;29;19957;-75
2022/06/13 05:50:15;;;;;;;;;;;;;;;22.11;83.71;98324.81;4878409;29;19955;-75
2022/06/13 05:52:43;;;;;;;;;;;;;;;22.09;85.61;98323.72;4884494;29;19977;-74
2022/06/13 05:55:11;;;;;;;;;;;;;;;22.10;84.38;98331.00;4888062;29;19959;-74
2022/06/13 05:57:57;;;;;;;;;;;;;;;22.09;88.81;98338.75;4888065;29;19949;-74
2022/06/13 06:00:27;;;;;;;;;;;;;;;22.06;96.81;98336.84;4884184;29;19957;-75
2022/06/13 06:02:54;;;;;;;;;;;;;;;22.01;98.78;98333.84;4879204;29;19952;-76
2022/06/13 06:05:21;;;;;;;;;;;;;;;22.00;97.33;98318.03;4884618;29;19957;-75
2022/06/13 06:07:48;;;;;;;;;;;;;;;21.87;93.08;98321.03;4881563;29;19951;-75
2022/06/13 06:10:17;;;;;;;;;;;;;;;21.86;87.66;98321.50;4881170;29;19972;-76
2022/06/13 06:12:45;;;;;;;;;;;;;;;21.89;84.26;98327.03;4882451;29;19948;-74
2022/06/13 06:15:13;;;;;;;;;;;;;;;21.94;86.09;98342.69;4879105;29;19963;-74
2022/06/13 06:17:40;;;;;;;;;;;;;;;21.99;88.82;98342.06;4890655;29;20296;-74
2022/06/13 06:20:07;;;;;;;;;;;;;;;22.00;89.19;98341.59;4887644;29;19954;-75
2022/06/13 06:22:35;;;;;;;;;;;;;;;22.02;91.68;98341.13;4883686;29;19946;-74
2022/06/13 06:25:04;;;;;;;;;;;;;;;22.02;91.92;98343.97;4883130;29;20556;-75
2022/06/13 06:27:31;;;;;;;;;;;;;;;22.00;92.90;98353.00;4859473;29;19951;-75
2022/06/13 06:29:59;;;;;;;;;;;;;;;21.96;93.02;98349.50;4883740;29;19955;-75
2022/06/13 06:32:26;;;;;;;;;;;;;;;21.89;94.74;98352.66;4882963;29;19958;-75
2022/06/13 06:34:53;;;;;;;;;;;;;;;21.83;95.57;98356.56;4889303;29;19955;-75
2022/06/13 06:37:21;;;;;;;;;;;;;;;21.81;95.80;98359.88;4879520;29;19980;-75
2022/06/13 06:39:48;;;;;;;;;;;;;;;21.75;95.20;98372.38;4880762;29;19946;-74
2022/06/13 06:42:15;;;;;;;;;;;;;;;21.75;97.99;98378.84;4875221;29;19950;-74
2022/06/13 06:44:50;;;;;;;;;;;;;;;21.66;97.81;98386.59;4882571;29;19952;-75
2022/06/13 06:47:17;;;;;;;;;;;;;;;21.62;99.45;98389.56;4883492;29;20277;-75
2022/06/13 06:49:47;;;;;;;;;;;;;;;21.63;100.00;98391.16;4878770;29;19956;-74
2022/06/13 06:52:14;;;;;;;;;;;;;;;21.55;100.00;98384.97;4880923;29;20255;-74
2022/06/13 07:00:13;;;;;;;;;;;;;;;21.64;100.00;98389.88;4883492;29;19950;-74
2022/06/13 07:02:41;;;;;;;;;;;;;;;22.02;96.39;98392.38;4882573;29;19951;-74
2022/06/13 07:05:09;;;;;;;;;;;;;;;22.42;94.34;98387.34;4883420;29;19952;-74
2022/06/13 07:07:37;;;;;;;;;;;;;;;22.74;91.24;98389.53;4882273;29;20330;-75
2022/06/13 07:10:05;;;;;;;;;;;;;;;22.89;90.30;98393.31;4882928;29;19970;-74
2022/06/13 07:12:33;;;;;;;;;;;;;;;22.96;89.39;98392.22;4879706;29;19960;-74
2022/06/13 07:15:00;;;;;;;;;;;;;;;22.96;97.42;98406.47;4882634;29;20247;-74
2022/06/13 07:17:27;;;;;;;;;;;;;;;22.82;100.00;98396.50;4883035;29;19969;-75
2022/06/13 07:19:55;;;;;;;;;;;;;;;22.63;100.00;98414.91;4882628;29;19955;-75
2022/06/13 07:22:23;;;;;;;;;;;;;;;22.64;100.00;98412.84;4881850;29;19963;-75
2022/06/13 07:24:51;;;;;;;;;;;;;;;22.62;100.00;98412.56;4883066;29;19950;-74
2022/06/13 07:27:22;;;;;;;;;;;;;;;22.59;100.00;98408.56;4883199;29;19959;-75
2022/06/13 07:29:56;;;;;;;;;;;;;;;22.57;100.00;98410.31;4880202;29;19956;-75
2022/06/13 07:32:29;;;;;;;;;;;;;;;22.68;100.00;98404.94;4876752;29;19957;-75
2022/06/13 07:35:04;;;;;;;;;;;;;;;22.73;100.00;98410.78;4876387;29;19952;-74
2022/06/13 07:40:38;;;;;;;;;;;;;;;23.23;100.00;98414.94;4881769;29;20239;-75
2022/06/13 07:43:25;;;;;;;;;;;;;;;23.34;100.00;98400.16;4882340;29;19952;-75
2022/06/13 07:45:52;;;;;;;;;;;;;;;23.47;100.00;98400.78;4882167;29;19954;-74
2022/06/13 07:48:24;;;;;;;;;;;;;;;23.57;99.50;98395.84;4882100;29;19951;-74
2022/06/13 07:50:51;;;;;;;;;;;;;;;23.65;99.87;98402.75;4885389;29;19951;-75
2022/06/13 07:53:19;;;;;;;;;;;;;;;23.76;97.20;98403.81;4885587;29;19952;-75
2022/06/13 07:55:56;;;;;;;;;;;;;;;23.92;92.42;98406.25;4885304;29;19952;-74
2022/06/13 07:58:30;;;;;;;;;;;;;;;24.23;95.95;98399.41;4886047;29;19959;-75
2022/06/13 08:00:57;;;;;;;;;;;;;;;24.58;100.00;98398.31;4886658;29;19951;-75
2022/06/13 08:03:27;;;;;;;;;;;;;;;24.83;97.79;98399.88;4885751;29;19969;-75
2022/06/13 08:05:55;;;;;;;;;;;;;;;25.00;88.72;98398.13;4887171;29;19948;-75
2022/06/13 08:08:22;;;;;;;;;;;;;;;25.22;88.52;98412.03;4886194;29;19956;-75
2022/06/13 08:10:50;;;;;;;;;;;;;;;25.31;90.67;98411.91;4885950;29;19951;-74
2022/06/13 08:13:19;;;;;;;;;;;;;;;25.26;97.91;98410.53;4886145;29;19954;-75
2022/06/13 08:15:47;;;;;;;;;;;;;;;25.40;95.72;98408.97;4886011;29;19984;-75
2022/06/13 08:18:14;;;;;;;;;;;;;;;25.58;96.65;98411.59;4885598;29;19972;-74
2022/06/13 08:20:44;;;;;;;;;;;;;;;25.72;94.44;98410.00;4885559;29;19953;-74
2022/06/13 08:23:13;;;;;;;;;;;;;;;25.81;89.61;98407.03;4885689;29;19958;-74
2022/06/13 08:25:41;;;;;;;;;;;;;;;25.90;94.12;98410.53;4885834;29;19953;-73
2022/06/13 08:28:10;;;;;;;;;;;;;;;25.89;93.25;98411.84;4885271;29;19960;-74
2022/06/13 08:30:51;;;;;;;;;;;;;;;25.85;86.39;98405.53;4885089;29;19959;-74
2022/06/13 08:33:20;;;;;;;;;;;;;;;26.02;93.13;98414.34;4885539;29;19957;-68
2022/06/13 08:35:48;;;;;;;;;;;;;;;26.29;87.49;98410.34;4885406;29;19955;-68
2022/06/13 08:38:16;;;;;;;;;;;;;;;26.53;86.18;98408.03;4885706;29;19970;-68
2022/06/13 08:40:44;;;;;;;;;;;;;;;26.65;81.70;98410.50;4885460;29;19956;-68
2022/06/13 08:43:29;;;;;;;;;;;;;;;26.68;81.84;98409.50;4885129;29;19957;-68
2022/06/13 08:46:01;;;;;;;;;;;;;;;26.85;81.44;98414.69;4884878;29;19950;-68
2022/06/13 08:48:34;;;;;;;;;;;;;;;26.95;88.47;98408.25;4885367;29;19955;-68
2022/06/13 08:51:11;;;;;;;;;;;;;;;26.97;91.41;98408.53;4882870;29;19956;-68
2022/06/13 08:53:54;;;;;;;;;;;;;;;27.03;91.69;98408.59;4883918;29;19950;-68
2022/06/13 08:56:23;;;;;;;;;;;;;;;27.15;87.61;98410.28;4884598;29;19955;-69
2022/06/13 08:58:55;;;;;;;;;;;;;;;27.26;87.02;98411.19;4885083;29;19957;-68
2022/06/13 09:01:40;;;;;;;;;;;;;;;27.25;87.52;98414.56;4884372;29;20300;-69
2022/06/13 09:04:10;;;;;;;;;;;;;;;27.26;88.92;98407.53;4884397;29;19986;-68
2022/06/13 09:06:45;;;;;;;;;;;;;;;27.09;89.02;98407.38;4882277;29;19953;-68
2022/06/13 09:09:18;;;;;;;;;;;;;;;26.91;96.69;98407.72;4881383;29;19997;-68
2022/06/13 09:12:05;;;;;;;;;;;;;;;26.89;94.23;98403.78;4877080;29;19949;-68
2022/06/13 09:14:36;;;;;;;;;;;;;;;26.94;92.79;98405.91;4884480;29;19959;-69
2022/06/13 09:17:09;;;;;;;;;;;;;;;27.07;90.38;98417.78;4884686;29;19972;-68
2022/06/13 09:19:40;;;;;;;;;;;;;;;27.16;89.87;98406.13;4884693;29;19959;-68
2022/06/13 09:22:17;;;;;;;;;;;;;;;27.35;85.91;98408.16;4884559;29;19959;-68
2022/06/13 09:24:52;;;;;;;;;;;;;;;27.56;83.78;98408.09;4884636;29;19955;-69
2022/06/13 09:27:23;;;;;;;;;;;;;;;27.68;86.22;98409.75;4884343;29;20023;-68
2022/06/13 09:29:55;;;;;;;;;;;;;;;27.73;85.37;98403.25;4884286;29;19955;-68
2022/06/13 09:32:26;;;;;;;;;;;;;;;27.69;87.97;98400.59;4884226;29;19955;-68
2022/06/13 09:35:02;;;;;;;;;;;;;;;27.79;87.27;98398.31;4883946;29;19964;-68
2022/06/13 09:37:36;;;;;;;;;;;;;;;27.77;81.29;98413.22;4883926;29;19969;-68
2022/06/13 09:40:04;;;;;;;;;;;;;;;27.74;79.76;98404.81;4890695;29;20236;-68
2022/06/13 09:42:41;;;;;;;;;;;;;;;27.68;85.55;98398.25;4884736;29;19952;-68
2022/06/13 09:45:23;;;;;;;;;;;;;;;27.66;86.18;98404.50;4883248;29;19951;-68
2022/06/13 09:48:02;;;;;;;;;;;;;;;27.80;83.45;98400.66;4883558;29;19968;-68
2022/06/13 09:50:30;;;;;;;;;;;;;;;27.87;85.42;98382.97;4884699;29;19949;-68
2022/06/13 09:53:00;;;;;;;;;;;;;;;27.87;86.30;98387.94;4883893;29;19959;-68
2022/06/13 09:55:44;;;;;;;;;;;;;;;27.96;83.44;98384.84;4884473;29;19956;-68
2022/06/13 09:58:15;;;;;;;;;;;;;;;27.98;79.51;98382.22;4884110;29;19976;-68
2022/06/13 10:00:45;;;;;;;;;;;;;;;28.06;75.93;98376.81;4892857;29;19953;-68
2022/06/13 10:03:32;;;;;;;;;;;;;;;28.20;78.67;98376.63;4882789;29;20245;-68
2022/06/13 10:06:02;;;;;;;;;;;;;;;28.28;83.12;98383.47;4880792;29;20349;-68
2022/06/13 10:08:32;;;;;;;;;;;;;;;28.16;81.89;98373.22;4880205;29;19952;-68
2022/06/13 10:11:31;;;;;;;;;;;;;;;27.94;74.35;98364.44;4879211;29;20011;-69
2022/06/13 10:14:19;;;;;;;;;;;;;;;28.15;74.44;98371.63;4881143;29;19955;-68
2022/06/13 10:16:47;;;;;;;;;;;;;;;28.29;77.42;98364.13;4882052;29;19953;-68
2022/06/13 10:19:40;;;;;;;;;;;;;;;28.47;86.27;98357.91;4875829;29;20370;-68
2022/06/13 10:22:10;;;;;;;;;;;;;;;28.45;80.81;98358.44;4877982;29;20210;-68
2022/06/13 10:24:47;;;;;;;;;;;;;;;28.47;69.85;98363.66;4881827;29;20343;-68
2022/06/13 10:27:37;;;;;;;;;;;;;;;28.34;75.31;98366.25;4882845;29;20248;-68
2022/06/13 10:30:19;;;;;;;;;;;;;;;28.41;72.74;98351.38;4884069;29;19955;-68
2022/06/13 10:32:56;;;;;;;;;;;;;;;28.43;72.12;98348.75;4890466;29;19956;-68
2022/06/13 10:35:26;;;;;;;;;;;;;;;28.44;74.38;98342.47;4879626;29;19959;-68
2022/06/13 10:38:05;;;;;;;;;;;;;;;28.57;76.41;98339.91;4883066;29;19976;-68
2022/06/13 10:40:32;;;;;;;;;;;;;;;28.41;64.74;98340.66;4883513;29;19979;-68
2022/06/13 10:43:00;;;;;;;;;;;;;;;28.54;67.60;98343.03;4883034;29;19958;-68
2022/06/13 10:45:27;;;;;;;;;;;;;;;28.64;60.42;98335.75;4884140;29;19948;-68
2022/06/13 10:47:59;;;;;;;;;;;;;;;28.70;68.42;98327.94;4879262;29;19953;-68
2022/06/13 10:50:31;;;;;;;;;;;;;;;28.68;65.64;98327.69;4882754;29;20212;-68
2022/06/13 10:53:01;;;;;;;;;;;;;;;28.69;64.87;98334.19;4880964;29;19953;-68
2022/06/13 10:55:31;;;;;;;;;;;;;;;28.81;66.49;98330.03;4882744;29;20245;-68
2022/06/13 10:58:02;;;;;;;;;;;;;;;28.98;60.66;98325.06;4881878;29;19974;-68
2022/06/13 11:00:30;;;;;;;;;;;;;;;28.92;65.11;98325.09;4881132;29;19951;-68
2022/06/13 11:03:09;;;;;;;;;;;;;;;28.86;68.89;98320.63;4878748;29;19957;-68
2022/06/13 11:06:04;;;;;;;;;;;;;;;28.88;71.46;98323.78;4881243;29;19950;-68
2022/06/13 11:08:31;;;;;;;;;;;;;;;28.87;72.64;98317.22;4872087;29;19963;-68
2022/06/13 11:11:02;;;;;;;;;;;;;;;28.97;74.18;98312.81;4882713;29;19958;-68
2022/06/13 11:13:32;;;;;;;;;;;;;;;28.72;68.84;98324.53;4882294;29;19950;-68
2022/06/13 11:24:42;;;;;;;;;;;;;;;28.96;70.38;98307.53;4884804;29;20383;-68
2022/06/13 11:27:39;;;;;;;;;;;;;;;29.11;67.34;98305.19;4888509;29;19953;-68
2022/06/13 11:30:25;;;;;;;;;;;;;;;29.28;64.02;98297.38;4883339;29;19959;-68
2022/06/13 11:33:04;;;;;;;;;;;;;;;29.32;61.68;98291.34;4880867;29;20242;-68
2022/06/13 11:35:40;;;;;;;;;;;;;;;29.40;61.32;98295.25;4888481;29;19954;-68
2022/06/13 11:38:27;;;;;;;;;;;;;;;29.28;62.28;98291.59;4882277;29;20264;-68
2022/06/13 11:41:12;;;;;;;;;;;;;;;29.35;72.83;98284.53;4887704;29;19954;-68
2022/06/13 11:44:00;;;;;;;;;;;;;;;29.34;58.45;98286.63;4890149;29;19962;-68
2022/06/13 11:46:27;;;;;;;;;;;;;;;29.26;63.82;98277.75;4889650;29;19959;-68
2022/06/13 11:48:56;;;;;;;;;;;;;;;29.22;62.19;98276.44;4877440;29;20035;-68
2022/06/13 11:51:28;;;;;;;;;;;;;;;29.26;63.11;98274.88;4889344;29;19957;-68
2022/06/13 11:53:57;;;;;;;;;;;;;;;29.38;65.19;98266.97;4881905;29;19960;-68
2022/06/13 11:56:29;;;;;;;;;;;;;;;29.37;60.02;98270.41;4885391;29;19957;-68
2022/06/13 11:59:00;;;;;;;;;;;;;;;29.46;64.00;98267.22;4888657;29;19975;-68
2022/06/13 12:01:32;;;;;;;;;;;;;;;29.51;65.09;98269.31;4888912;29;19981;-68
2022/06/13 12:04:11;;;;;;;;;;;;;;;29.55;67.89;98259.09;4889166;29;19949;-68
2022/06/13 12:06:49;;;;;;;;;;;;;;;29.58;75.51;98263.81;4860618;29;19959;-68
2022/06/13 12:09:21;;;;;;;;;;;;;;;29.65;64.34;98266.13;4887877;29;19968;-68
2022/06/13 12:11:56;;;;;;;;;;;;;;;29.66;62.40;98264.81;4891024;29;20209;-68
2022/06/13 12:14:24;;;;;;;;;;;;;;;29.78;53.90;98271.38;4886412;29;20032;-68
2022/06/13 12:17:01;;;;;;;;;;;;;;;29.73;59.75;98257.72;4887972;29;20246;-69
2022/06/13 12:19:54;;;;;;;;;;;;;;;29.66;53.12;98255.41;4884927;29;19965;-68
2022/06/13 12:22:31;;;;;;;;;;;;;;;29.68;56.36;98252.75;4881846;29;19951;-68
2022/06/13 12:25:18;;;;;;;;;;;;;;;29.70;49.32;98248.03;4887546;29;19951;-68
2022/06/13 12:27:52;;;;;;;;;;;;;;;30.03;50.51;98243.50;4888537;29;20245;-68
2022/06/13 12:30:19;;;;;;;;;;;;;;;30.17;50.25;98245.25;4888566;29;19949;-69
2022/06/13 12:32:52;;;;;;;;;;;;;;;30.04;55.15;98239.28;4888554;29;19952;-68
2022/06/13 12:35:52;;;;;;;;;;;;;;;29.89;55.67;98237.50;4880312;29;19952;-68
2022/06/13 12:38:19;;;;;;;;;;;;;;;29.74;53.61;98239.09;4851882;29;19971;-68
2022/06/13 12:41:12;;;;;;;;;;;;;;;29.74;53.87;98236.22;4884750;29;20243;-68
2022/06/13 12:43:42;;;;;;;;;;;;;;;29.69;53.10;98228.38;4857869;29;19950;-68
2022/06/13 12:46:33;;;;;;;;;;;;;;;29.69;59.33;98223.41;4883755;29;19982;-68
2022/06/13 12:49:00;;;;;;;;;;;;;;;29.68;55.32;98226.81;4875759;29;19955;-68
2022/06/13 12:51:46;;;;;;;;;;;;;;;29.54;50.34;98217.16;4881809;29;19947;-68
2022/06/13 12:54:22;;;;;;;;;;;;;;;29.77;45.78;98223.66;4881007;29;19962;-68
2022/06/13 12:56:56;;;;;;;;;;;;;;;29.76;45.88;98210.56;4885061;29;19978;-68
2022/06/13 12:59:42;;;;;;;;;;;;;;;29.82;49.49;98211.34;4885247;29;19969;-68
2022/06/13 13:02:21;;;;;;;;;;;;;;;29.91;51.44;98211.81;4885443;29;19959;-68
2022/06/13 13:04:54;;;;;;;;;;;;;;;30.02;42.57;98205.22;4885452;29;19958;-68
2022/06/13 13:07:24;;;;;;;;;;;;;;;30.01;54.95;98200.75;4880062;29;19949;-68
2022/06/13 13:09:51;;;;;;;;;;;;;;;29.98;61.26;98198.16;4883738;29;19973;-68
2022/06/13 13:12:37;;;;;;;;;;;;;;;29.97;57.06;98193.69;4869082;29;19976;-68
2022/06/13 13:15:23;;;;;;;;;;;;;;;29.95;59.43;98187.69;4884485;29;19951;-68
2022/06/13 13:17:55;;;;;;;;;;;;;;;29.97;52.82;98194.50;4885383;29;19945;-68
2022/06/13 13:20:30;;;;;;;;;;;;;;;30.15;52.06;98196.72;4885264;29;19951;-69
2022/06/13 13:23:16;;;;;;;;;;;;;;;30.07;53.07;98198.63;4885121;29;19954;-69
2022/06/13 13:25:48;;;;;;;;;;;;;;;30.13;48.18;98184.94;4884942;29;20302;-68
2022/06/13 13:28:18;;;;;;;;;;;;;;;30.20;45.36;98180.72;4884592;29;19955;-68
2022/06/13 13:31:06;;;;;;;;;;;;;;;30.18;46.99;98178.38;4884627;29;19957;-68
2022/06/13 13:33:49;;;;;;;;;;;;;;;30.13;50.45;98176.28;4885374;29;19953;-68
2022/06/13 13:36:22;;;;;;;;;;;;;;;30.15;47.90;98182.31;4874118;29;20334;-68
2022/06/13 13:38:53;;;;;;;;;;;;;;;30.15;45.65;98176.53;4885146;29;19969;-69
2022/06/13 13:41:32;;;;;;;;;;;;;;;30.08;48.77;98174.22;4884828;29;19959;-68
2022/06/13 13:43:59;;;;;;;;;;;;;;;30.06;50.05;98165.34;4885213;29;19959;-69
2022/06/13 13:46:35;;;;;;;;;;;;;;;30.28;42.03;98161.50;4883789;29;19956;-68
2022/06/13 13:49:10;;;;;;;;;;;;;;;30.22;44.58;98157.91;4884844;29;19979;-68
2022/06/13 13:51:51;;;;;;;;;;;;;;;30.19;49.28;98162.63;4885268;29;19951;-68
2022/06/13 13:54:28;;;;;;;;;;;;;;;30.22;49.01;98146.34;4885718;29;19956;-68
2022/06/13 13:57:03;;;;;;;;;;;;;;;30.16;49.97;98151.38;4885956;29;20315;-68
2022/06/13 13:59:36;;;;;;;;;;;;;;;30.05;48.05;98149.38;4884506;29;20257;-69
2022/06/13 14:02:09;;;;;;;;;;;;;;;30.02;49.73;98147.53;4884302;29;20330;-68
2022/06/13 14:04:37;;;;;;;;;;;;;;;29.91;54.96;98147.59;4884535;29;20237;-68
2022/06/13 14:07:22;;;;;;;;;;;;;;;29.89;55.59;98153.91;4884401;29;19952;-68
2022/06/13 14:09:50;;;;;;;;;;;;;;;29.90;62.54;98146.03;4884806;29;19986;-68
2022/06/13 14:12:17;;;;;;;;;;;;;;;29.86;55.42;98145.53;4884727;29;19954;-68
2022/06/13 14:14:52;;;;;;;;;;;;;;;30.19;41.07;98153.19;4884371;29;19953;-68
2022/06/13 14:17:26;;;;;;;;;;;;;;;30.11;47.67;98140.66;4884043;29;19953;-68
2022/06/13 14:19:56;;;;;;;;;;;;;;;30.14;47.27;98133.81;4884018;29;19979;-68
2022/06/13 14:22:24;;;;;;;;;;;;;;;30.15;46.25;98123.88;4883706;29;20366;-68
2022/06/13 14:25:20;;;;;;;;;;;;;;;30.02;47.06;98127.34;4884221;29;19954;-68
2022/06/13 14:27:52;;;;;;;;;;;;;;;30.02;46.45;98117.91;4872406;29;19956;-68
2022/06/13 14:33:09;;;;;;;;;;;;;;;30.01;52.20;98122.09;4883739;29;19957;-68
2022/06/13 14:35:48;;;;;;;;;;;;;;;29.93;45.00;98119.78;4884554;29;19956;-68
2022/06/13 14:38:42;;;;;;;;;;;;;;;29.90;48.12;98120.09;4884730;29;19948;-68
2022/06/13 14:41:34;;;;;;;;;;;;;;;29.87;51.15;98106.72;4881915;29;19956;-68
2022/06/13 14:44:08;;;;;;;;;;;;;;;29.86;52.78;98110.91;4884386;29;20228;-68
2022/06/13 14:46:54;;;;;;;;;;;;;;;29.80;53.41;98107.31;4883422;29;19953;-68
2022/06/13 14:49:47;;;;;;;;;;;;;;;29.72;54.72;98100.50;4884842;29;20260;-68
2022/06/13 14:52:18;;;;;;;;;;;;;;;29.89;53.79;98098.31;4881716;29;19956;-68
2022/06/13 14:54:46;;;;;;;;;;;;;;;29.87;56.46;98095.19;4883798;29;19963;-68
2022/06/13 14:57:28;;;;;;;;;;;;;;;29.89;56.39;98098.31;4883324;29;19951;-68
2022/06/13 15:00:01;;;;;;;;;;;;;;;29.82;50.69;98093.13;4871240;29;19990;-68
2022/06/13 15:02:29;;;;;;;;;;;;;;;29.78;51.39;98092.66;4883610;29;19963;-68
2022/06/13 15:05:04;;;;;;;;;;;;;;;29.76;53.39;98086.59;4884516;29;19963;-68
2022/06/13 15:07:49;;;;;;;;;;;;;;;29.73;53.13;98079.03;4883560;29;19958;-68
2022/06/13 15:10:28;;;;;;;;;;;;;;;29.68;58.65;98085.59;4871998;29;19990;-68
2022/06/13 15:12:58;;;;;;;;;;;;;;;29.67;63.54;98093.47;4873231;29;19956;-68
2022/06/13 15:15:29;;;;;;;;;;;;;;;29.61;55.66;98092.72;4883990;29;19959;-68
2022/06/13 15:17:57;;;;;;;;;;;;;;;29.64;54.56;98099.50;4883671;29;19957;-68
2022/06/13 15:20:27;;;;;;;;;;;;;;;29.59;56.01;98103.97;4883645;29;19999;-68
2022/06/13 15:23:04;;;;;;;;;;;;;;;29.60;57.18;98096.91;4884249;29;19945;-68
2022/06/13 15:25:35;;;;;;;;;;;;;;;29.63;59.90;98103.69;4883646;29;20335;-68
2022/06/13 15:28:03;;;;;;;;;;;;;;;29.56;63.71;98098.50;4881865;29;19960;-68
2022/06/13 15:30:36;;;;;;;;;;;;;;;29.58;51.36;98101.63;4857440;29;19974;-68
2022/06/13 15:33:03;;;;;;;;;;;;;;;29.67;55.87;98092.66;4880907;29;19950;-68
2022/06/13 15:35:38;;;;;;;;;;;;;;;29.54;50.99;98104.03;4881009;29;19950;-67
2022/06/13 15:38:11;;;;;;;;;;;;;;;29.53;52.44;98096.69;4878389;29;20234;-68
2022/06/13 15:40:40;;;;;;;;;;;;;;;29.50;53.17;98095.63;4878941;29;19972;-68
2022/06/13 15:43:07;;;;;;;;;;;;;;;29.48;56.67;98104.03;4879664;29;19956;-68
2022/06/13 15:45:36;;;;;;;;;;;;;;;29.45;57.56;98101.41;4877054;29;19954;-68
2022/06/13 15:48:03;;;;;;;;;;;;;;;29.36;58.28;98105.41;4878301;29;20284;-68
2022/06/13 15:50:31;;;;;;;;;;;;;;;29.35;57.04;98105.91;4882128;29;19954;-66
2022/06/13 15:53:00;;;;;;;;;;;;;;;29.33;59.38;98103.56;4881987;29;19963;-68
2022/06/13 15:55:42;;;;;;;;;;;;;;;29.29;58.53;98103.84;4881393;29;19959;-68
2022/06/13 15:58:21;;;;;;;;;;;;;;;29.30;63.65;98096.00;4878131;29;19957;-68
2022/06/13 16:00:49;;;;;;;;;;;;;;;29.41;63.39;98093.06;4881118;29;19970;-69
2022/06/13 16:03:18;;;;;;;;;;;;;;;29.36;56.00;98099.63;4882490;29;20383;-68
2022/06/13 16:06:01;;;;;;;;;;;;;;;29.28;57.27;98101.50;4882679;29;19957;-68
2022/06/13 16:08:33;;;;;;;;;;;;;;;29.21;62.04;98097.09;4879616;29;19957;-68
2022/06/13 16:11:03;;;;;;;;;;;;;;;29.16;63.60;98091.31;4883229;29;19961;-68
2022/06/13 16:13:35;;;;;;;;;;;;;;;29.11;62.73;98087.13;4884439;29;20275;-68
2022/06/13 16:16:05;;;;;;;;;;;;;;;29.07;61.19;98101.03;4886353;29;19965;-68
2022/06/13 16:18:33;;;;;;;;;;;;;;;28.99;60.62;98097.13;4881907;29;20236;-68
2022/06/13 16:21:01;;;;;;;;;;;;;;;29.01;60.60;98091.63;4884154;29;19973;-68
2022/06/13 16:23:32;;;;;;;;;;;;;;;28.96;60.82;98095.28;4885541;29;19956;-68
2022/06/13 16:26:00;;;;;;;;;;;;;;;28.95;62.32;98090.06;4878516;29;19951;-69
2022/06/13 16:28:28;;;;;;;;;;;;;;;28.95;63.45;98090.88;4883457;29;19957;-68
2022/06/13 16:30:57;;;;;;;;;;;;;;;28.99;63.20;98084.81;4884601;29;20247;-68
2022/06/13 16:33:26;;;;;;;;;;;;;;;29.10;63.15;98093.44;4885052;29;19950;-68
2022/06/13 16:35:53;;;;;;;;;;;;;;;29.00;66.42;98101.56;4885710;29;19952;-68
2022/06/13 16:38:21;;;;;;;;;;;;;;;28.92;60.06;98096.88;4885564;29;20249;-68
2022/06/13 16:40:53;;;;;;;;;;;;;;;28.91;62.04;98107.59;4883055;29;19966;-68
2022/06/13 16:43:29;;;;;;;;;;;;;;;28.82;65.18;98105.00;4882583;29;19953;-68
2022/06/13 16:46:00;;;;;;;;;;;;;;;28.76;63.75;98101.34;4875677;29;19955;-68
2022/06/13 16:48:28;;;;;;;;;;;;;;;28.70;64.09;98103.47;4882134;29;20372;-68
2022/06/13 16:50:59;;;;;;;;;;;;;;;28.69;65.53;98101.88;4884277;29;20263;-68
2022/06/13 16:53:26;;;;;;;;;;;;;;;28.61;68.86;98100.88;4887459;29;19958;-68
2022/06/13 16:55:54;;;;;;;;;;;;;;;28.57;74.31;98095.34;4881644;29;20258;-69
2022/06/13 16:58:21;;;;;;;;;;;;;;;28.54;75.80;98090.63;4881462;29;19961;-68
2022/06/13 17:00:56;;;;;;;;;;;;;;;28.49;77.88;98088.53;4883964;29;19976;-69
2022/06/13 17:03:44;;;;;;;;;;;;;;;28.42;78.92;98086.19;4885445;29;20001;-68
2022/06/13 17:06:26;;;;;;;;;;;;;;;28.37;79.50;98086.19;4877856;29;19948;-68
2022/06/13 17:08:58;;;;;;;;;;;;;;;28.29;79.71;98079.41;4883589;29;19986;-68
2022/06/13 17:11:26;;;;;;;;;;;;;;;28.22;80.89;98086.44;4884678;29;19966;-68
2022/06/13 17:13:55;;;;;;;;;;;;;;;28.22;82.35;98089.31;4883771;29;19962;-68
2022/06/13 17:16:23;;;;;;;;;;;;;;;28.18;82.70;98082.28;4883799;29;19958;-68
2022/06/13 17:18:53;;;;;;;;;;;;;;;28.15;83.31;98086.19;4883755;29;19963;-68
2022/06/13 17:21:26;;;;;;;;;;;;;;;28.12;83.46;98081.50;4884556;29;19970;-68
2022/06/13 17:23:55;;;;;;;;;;;;;;;28.08;85.68;98086.72;4880345;29;19962;-69
2022/06/13 17:32:07;;;;;;;;;;;;;;;27.96;84.74;98098.19;4884778;29;19957;-69
2022/06/13 17:34:36;;;;;;;;;;;;;;;27.93;84.03;98093.47;4880991;29;19960;-69
2022/06/13 17:37:05;;;;;;;;;;;;;;;27.90;86.67;98090.88;4880448;29;19951;-68
2022/06/13 17:39:33;;;;;;;;;;;;;;;27.84;85.03;98102.34;4875163;29;20371;-67
2022/06/13 17:42:01;;;;;;;;;;;;;;;27.81;85.70;98097.63;4881539;29;19966;-68
2022/06/13 17:44:28;;;;;;;;;;;;;;;27.79;87.33;98105.97;4883654;29;19949;-68
2022/06/13 17:46:56;;;;;;;;;;;;;;;27.77;87.23;98108.59;4884897;29;19956;-68
2022/06/13 17:49:23;;;;;;;;;;;;;;;27.77;87.41;98114.34;4878740;29;20358;-68
2022/06/13 17:51:51;;;;;;;;;;;;;;;27.76;88.39;98112.75;4877311;29;19960;-68
2022/06/13 17:54:21;;;;;;;;;;;;;;;27.76;88.08;98121.38;4882847;29;20365;-68
2022/06/13 17:56:51;;;;;;;;;;;;;;;27.71;89.91;98122.16;4879818;29;19980;-68
2022/06/13 17:59:19;;;;;;;;;;;;;;;27.67;89.38;98123.72;4876361;29;19958;-67
2022/06/13 18:01:47;;;;;;;;;;;;;;;27.65;88.61;98132.06;4879369;29;19982;-68
2022/06/13 18:04:16;;;;;;;;;;;;;;;27.57;89.72;98128.13;4879652;29;20409;-68
2022/06/13 18:06:44;;;;;;;;;;;;;;;27.51;90.24;98136.72;4882388;29;19951;-68
2022/06/13 18:09:15;;;;;;;;;;;;;;;27.43;89.01;98138.53;4867144;29;19999;-68
2022/06/13 18:11:42;;;;;;;;;;;;;;;27.36;89.93;98136.88;4877758;29;19962;-68
2022/06/13 18:14:09;;;;;;;;;;;;;;;27.32;89.97;98139.22;4883233;29;19996;-68
2022/06/13 18:16:37;;;;;;;;;;;;;;;27.28;88.21;98140.75;4881357;29;19952;-68
2022/06/13 18:19:06;;;;;;;;;;;;;;;27.22;88.24;98146.47;4881739;29;20346;-68
2022/06/13 18:21:34;;;;;;;;;;;;;;;27.18;88.53;98142.28;4889019;29;20263;-67
2022/06/13 18:24:02;;;;;;;;;;;;;;;27.11;90.34;98140.69;4884064;29;20250;-68
2022/06/13 18:26:31;;;;;;;;;;;;;;;27.04;89.99;98141.16;4883594;29;19965;-68
2022/06/13 18:28:59;;;;;;;;;;;;;;;26.97;90.07;98144.50;4883989;29;19962;-68
2022/06/13 18:31:30;;;;;;;;;;;;;;;26.91;90.54;98151.50;4884112;29;19963;-68
2022/06/13 18:33:58;;;;;;;;;;;;;;;26.87;88.91;98153.84;4882046;29;19951;-68
2022/06/13 18:36:25;;;;;;;;;;;;;;;26.83;86.15;98159.81;4882678;29;19958;-67
2022/06/13 18:38:52;;;;;;;;;;;;;;;26.82;88.09;98152.50;4881969;29;20370;-68
2022/06/13 18:41:21;;;;;;;;;;;;;;;26.72;89.75;98149.03;4881212;29;20247;-68
2022/06/13 18:43:53;;;;;;;;;;;;;;;26.67;89.30;98148.97;4884370;29;19959;-67
2022/06/13 20:08:30;;;;;;;;;;;;;;;25.39;100.00;98224.13;4881239;29;19954;-78
2022/06/13 20:11:00;;;;;;;;;;;;;;;25.34;100.00;98225.66;4882653;29;19958;-76